Flight Track Log - Related Links

Times and Time Zones

All times are in EST time to prevent confusion due to time zone crossing. See the GAO2725 flight status page for this flight to view local times or setup timezone preferences in your user account.

Time Position Orientation Groundspeed Altitude Reporting Facility
EST Latitude Longitude Course Direction KTS MPH feet Rate Location/Type
Tue 09:30:00 AM 60.4460 21.8822 250° West  Level Estimated
Tue 09:31:00 AM 60.4230 21.7557 250° West  Level Estimated
Tue 09:32:00 AM 60.3999 21.6294 250° West  Level Estimated
Tue 09:33:00 AM 60.3768 21.5033 250° West  Level Estimated
Tue 09:34:00 AM 60.3534 21.3773 250° West  Level Estimated
Tue 09:35:00 AM 60.3300 21.2515 249° West  Level Estimated
Tue 09:36:00 AM 60.3065 21.1259 249° West  Level Estimated
Tue 09:37:00 AM 60.2828 21.0005 249° West  Level Estimated
Tue 09:38:00 AM 60.2590 20.8753 249° West  Level Estimated
Tue 09:39:00 AM 60.2351 20.7502 249° West  Level Estimated
Tue 09:40:00 AM 60.2111 20.6254 249° West  Level Estimated
Tue 09:41:00 AM 60.1869 20.5007 249° West  Level Estimated
Tue 09:42:00 AM 60.1627 20.3762 249° West  Level Estimated
Tue 09:43:00 AM 60.1383 20.2518 249° West  Level Estimated
Tue 09:44:00 AM 60.1138 20.1277 248° West  Level Estimated
Tue 09:45:00 AM 60.0892 20.0037 248° West  Level Estimated
Tue 09:46:00 AM 60.0645 19.8800 248° West  Level Estimated
Tue 09:47:00 AM 60.0396 19.7564 248° West  Level Estimated
Tue 09:48:00 AM 60.0147 19.6330 248° West  Level Estimated
Tue 09:49:00 AM 59.9896 19.5098 248° West  Level Estimated
Tue 09:50:00 AM 59.9644 19.3868 248° West  Level Estimated
Tue 09:51:00 AM 59.9391 19.2640 248° West  Level Estimated
Tue 09:52:00 AM 59.9137 19.1413 248° West  Level Estimated
Tue 09:53:00 AM 59.8882 19.0188 247° West  Level Estimated
Tue 09:54:00 AM 59.8626 18.8966 247° West  Level Estimated
Tue 09:55:00 AM 59.8368 18.7745 247° West  Level Estimated
Tue 09:56:00 AM 59.8110 18.6526 247° West  Level Estimated
Tue 09:57:00 AM 59.7850 18.5309 247° West  Level Estimated
Tue 09:58:00 AM 59.7589 18.4094 247° West  Level Estimated
Tue 09:59:00 AM 59.7327 18.2881 247° West  Level Estimated
Tue 10:00:00 AM 59.7064 18.1669 247° West  Level Estimated
Tue 10:01:00 AM 59.6799 18.0460 247° West  Level Estimated
Tue 10:02:00 AM 59.6534 17.9252 247° West  Level Estimated
Tue 10:03:00 AM 59.6519 17.9186 246° West  Level Estimated
Tue 10:04:00 AM 59.6519 17.9186 North  Level Estimated
Tue 10:05:00 AM 59.6519 17.9186 North  Level Estimated
Tue 10:06:00 AM 59.6519 17.9186 North  Level Estimated
Tue 10:07:00 AM 59.6519 17.9186 North  Level Estimated
Tue 10:08:00 AM 59.6519 17.9186 North  Level Estimated
Tue 10:09:00 AM 59.6519 17.9186 North  Level Estimated
Tue 10:10:00 AM 59.6519 17.9186 North  Level Estimated
Tue 10:11:00 AM 59.6519 17.9186 North  Level Estimated

Login

Don't have an account? Register now (free) for customized features, flight alerts, and more!